KEDU

University Airport

Davis, California, USA
METAR KEDU 202015Z AUTO 14007KT 8SM CLR 29/13 A2984 RMK AO1
Observed Flight Rules
Aug-20 @ 20:15 UTC (14 minutes ago) Visual Flight Rules
Wind Visibility Clouds
140° at 7 knots 8 miles
  • Clear skies
Temperatures Readings
Current 29°C / 84°F
Dewpoint 13°C / 55°F
Humidity 37%
Altimeter 29.84" Hg
Pressure 1010 hPa
Elevation 21
METAR KEDU 202015Z AUTO 14007KT 8SM CLR 29/13 A2984 RMK AO1
Observed Flight Rules
Aug-20 @ 20:15 UTC
(14 minutes ago)
VFR
Wind Visibility
140° at 7 knots 8 miles
Clouds
  • Clear skies
Temperature Dewpoint
29°C / 84°F 13°C / 55°F
Humidity Altimeter Pressure
37% 29.84" Hg 1010 hPa